Aviation Digital Data Service (ADDS)

Output produced by METARs form (0406 UTC 26 June 2019)
found at http://www.aviationweather.gov/metar/data/
 
Forecast for: UNTT (PLOTNIKOVO/TOMSK, RU)
Text: TAF UNTT 260200Z 2603/2612 17003G08MPS 9999 SCT030CB
Forecast period: 0300 to 1200 UTC 26 June 2019
Forecast type: FROM: standard forecast or significant change
Winds: from the S (170 degrees) at 7 MPH (6 knots; 3.1 m/s)
gusting to 18 MPH (16 knots; 8.2 m/s)
Visibility: 6 or more miles 10+ km)
Ceiling: at least 12,000 feet AGL
Clouds: scattered clouds at 3000 feet AGL
Weather: no significant weather forecast for this period